Time;durP1;ratioP1;P1;durP2;ratioP2;P2;SDS_P1;SDS_P2;PMS_P1;PMS_P2;Temp;Humidity;BMP_temperature;BMP_pressure;BME280_temperature;BME280_humidity;BME280_pressure;Samples;Min_cycle;Max_cycle;Signal;HPM_P1;HPM_P2
2023/05/03 00:01:38;;;;;;;16.77;10.57;;;6.70;99.90;;;;;;7582927;19;20021;-76
2023/05/03 00:04:10;;;;;;;15.23;10.50;;;6.70;99.90;;;;;;7583807;19;20018;-77
2023/05/03 00:06:43;;;;;;;22.37;13.33;;;6.80;99.90;;;;;;7584488;19;20014;-76
2023/05/03 00:09:16;;;;;;;24.27;14.23;;;6.80;99.90;;;;;;7590997;19;20034;-76
2023/05/03 00:11:48;;;;;;;24.25;13.75;;;6.60;99.90;;;;;;7588294;19;20801;-76
2023/05/03 00:14:21;;;;;;;31.23;16.73;;;6.50;99.90;;;;;;7573635;19;20020;-76
2023/05/03 00:16:53;;;;;;;41.80;21.80;;;6.50;99.90;;;;;;7596718;19;21080;-77
2023/05/03 00:19:32;;;;;;;34.47;17.30;;;6.40;99.90;;;;;;7603144;19;20029;-76
2023/05/03 00:22:05;;;;;;;24.33;13.30;;;6.40;99.90;;;;;;7600667;19;20346;-77
2023/05/03 00:24:37;;;;;;;19.67;12.27;;;6.50;99.90;;;;;;7584303;19;20022;-75
2023/05/03 00:27:10;;;;;;;15.82;11.23;;;6.50;99.90;;;;;;7596193;19;20018;-75
2023/05/03 00:29:42;;;;;;;15.75;10.50;;;6.50;99.90;;;;;;7592828;19;20034;-77
2023/05/03 00:32:14;;;;;;;16.50;10.80;;;6.40;99.90;;;;;;7603655;19;20014;-77
2023/05/03 00:34:51;;;;;;;24.05;11.80;;;6.50;99.90;;;;;;7581560;19;20022;-75
2023/05/03 00:37:24;;;;;;;18.77;12.00;;;6.50;99.90;;;;;;7589117;19;20018;-76
2023/05/03 00:39:56;;;;;;;17.17;9.05;;;6.30;99.90;;;;;;7595668;19;20033;-76
2023/05/03 00:42:28;;;;;;;15.02;10.70;;;6.20;99.90;;;;;;7587546;19;20014;-77
2023/05/03 00:45:03;;;;;;;14.20;9.90;;;6.20;99.90;;;;;;7604557;19;20018;-77
2023/05/03 00:47:36;;;;;;;17.35;9.30;;;6.40;99.90;;;;;;7582756;19;20068;-75
2023/05/03 00:50:10;;;;;;;13.60;9.00;;;6.50;99.90;;;;;;7573341;19;20038;-77
2023/05/03 00:52:43;;;;;;;12.85;8.98;;;6.60;99.90;;;;;;7584527;19;20018;-75
2023/05/03 00:55:16;;;;;;;13.75;9.55;;;6.60;99.90;;;;;;7596108;19;20018;-77
2023/05/03 00:57:48;;;;;;;12.55;8.80;;;6.50;99.90;;;;;;7584084;19;20431;-76
2023/05/03 01:00:21;;;;;;;14.55;9.38;;;6.50;99.90;;;;;;7594070;19;20011;-77
2023/05/03 01:02:53;;;;;;;24.65;11.60;;;6.50;99.90;;;;;;7597602;19;20022;-78
2023/05/03 01:05:31;;;;;;;15.68;11.13;;;6.40;99.90;;;;;;7594280;19;20461;-78
2023/05/03 01:08:13;;;;;;;15.35;10.77;;;6.20;99.90;;;;;;7576952;19;20026;-77
2023/05/03 01:10:56;;;;;;;19.30;12.88;;;6.20;99.90;;;;;;7590575;19;20010;-76
2023/05/03 01:13:42;;;;;;;18.23;11.85;;;6.10;99.90;;;;;;7587174;19;20018;-76
2023/05/03 01:16:35;;;;;;;14.85;10.05;;;6.10;99.90;;;;;;7590636;19;20399;-76
2023/05/03 01:19:46;;;;;;;12.83;9.13;;;6.10;99.90;;;;;;7591284;19;20350;-75
2023/05/03 01:22:42;;;;;;;17.08;9.80;;;6.20;99.90;;;;;;7601928;19;20295;-76
2023/05/03 01:25:15;;;;;;;13.27;9.50;;;6.30;99.90;;;;;;7592643;19;20037;-76
2023/05/03 01:27:47;;;;;;;17.85;11.20;;;6.40;99.90;;;;;;7573148;19;20026;-75
2023/05/03 01:30:22;;;;;;;15.25;10.38;;;6.50;99.90;;;;;;7585447;19;20443;-75
2023/05/03 01:33:15;;;;;;;17.85;10.98;;;6.50;99.90;;;;;;7587035;19;20022;-76
2023/05/03 01:36:03;;;;;;;14.57;10.35;;;6.50;99.90;;;;;;7587906;19;20119;-76
2023/05/03 01:38:37;;;;;;;18.92;9.95;;;6.60;99.90;;;;;;7583889;19;20015;-75
2023/05/03 01:41:11;;;;;;;13.07;9.43;;;6.70;99.90;;;;;;7560034;19;21086;-76
2023/05/03 01:43:44;;;;;;;16.08;10.10;;;6.70;99.90;;;;;;7566825;19;20885;-77
2023/05/03 01:46:18;;;;;;;19.20;10.75;;;6.80;99.90;;;;;;7591619;19;21015;-77
2023/05/03 01:48:50;;;;;;;15.88;10.63;;;6.80;99.90;;;;;;7563048;19;20043;-75
2023/05/03 01:51:22;;;;;;;16.42;11.32;;;6.70;99.90;;;;;;7584037;19;21983;-75
2023/05/03 01:53:54;;;;;;;22.40;12.02;;;6.70;99.90;;;;;;7583772;19;21168;-76
2023/05/03 01:56:26;;;;;;;21.33;12.50;;;6.70;99.90;;;;;;7584931;19;20018;-78
2023/05/03 01:58:59;;;;;;;17.33;10.77;;;6.60;99.90;;;;;;7579259;19;20056;-76
2023/05/03 02:01:32;;;;;;;14.40;10.70;;;6.70;99.90;;;;;;7590492;19;20243;-76
2023/05/03 02:04:04;;;;;;;15.20;10.98;;;6.80;99.90;;;;;;7574204;19;20398;-77
2023/05/03 02:06:37;;;;;;;18.77;11.10;;;6.80;99.90;;;;;;7585540;19;20018;-76
2023/05/03 02:09:09;;;;;;;19.35;11.77;;;6.90;99.90;;;;;;7581762;19;20022;-77
2023/05/03 02:11:42;;;;;;;17.40;12.43;;;6.90;99.90;;;;;;7588022;19;20014;-78
2023/05/03 02:14:14;;;;;;;18.33;12.85;;;7.00;99.90;;;;;;7565021;19;20019;-77
2023/05/03 02:16:47;;;;;;;15.38;11.10;;;6.90;99.90;;;;;;7587692;19;20601;-76
2023/05/03 02:19:19;;;;;;;18.42;10.77;;;7.00;99.90;;;;;;7575149;19;20043;-77
2023/05/03 02:21:51;;;;;;;16.25;11.00;;;7.10;99.90;;;;;;7580720;19;20018;-75
2023/05/03 02:24:23;;;;;;;14.95;11.40;;;7.00;99.90;;;;;;7588246;19;20025;-76
2023/05/03 02:26:56;;;;;;;14.43;10.10;;;7.10;99.90;;;;;;7590798;19;20014;-76
2023/05/03 02:29:30;;;;;;;16.60;11.40;;;7.10;99.90;;;;;;7572493;19;20267;-78
2023/05/03 02:32:04;;;;;;;14.82;9.88;;;7.10;99.90;;;;;;7589675;19;20019;-78
2023/05/03 02:34:38;;;;;;;19.23;10.98;;;7.10;99.90;;;;;;7575125;19;20027;-76
2023/05/03 02:37:12;;;;;;;17.25;10.45;;;7.20;99.90;;;;;;7574099;19;20010;-76
2023/05/03 02:39:45;;;;;;;20.07;13.30;;;7.20;99.90;;;;;;7571491;19;20048;-75
2023/05/03 02:42:19;;;;;;;14.70;10.77;;;7.10;99.90;;;;;;7570311;19;20014;-76
2023/05/03 02:44:52;;;;;;;;;;;7.10;99.90;;;;;;7577238;19;20018;-76
2023/05/03 02:47:25;;;;;;;16.85;11.30;;;7.10;99.90;;;;;;7597014;19;19930;-76
2023/05/03 02:49:57;;;;;;;14.82;10.55;;;7.10;99.90;;;;;;7572813;19;20018;-77
2023/05/03 02:52:29;;;;;;;14.70;9.55;;;7.20;99.90;;;;;;7579700;19;20025;-76
2023/05/03 02:55:04;;;;;;;16.38;11.25;;;7.20;99.90;;;;;;7571156;19;20094;-76
2023/05/03 02:57:36;;;;;;;16.73;11.80;;;7.30;99.90;;;;;;7560730;19;20665;-77
2023/05/03 03:00:14;;;;;;;15.38;10.52;;;7.20;99.90;;;;;;7581568;19;20025;-77
2023/05/03 03:02:47;;;;;;;14.75;10.55;;;7.20;99.90;;;;;;7583984;19;20039;-78
2023/05/03 03:05:19;;;;;;;14.20;10.37;;;7.20;99.90;;;;;;7571131;19;20015;-77
2023/05/03 03:07:54;;;;;;;18.10;11.02;;;7.10;99.90;;;;;;7576139;19;20856;-78
2023/05/03 03:10:27;;;;;;;16.17;10.95;;;7.10;99.90;;;;;;7575984;19;20015;-76
2023/05/03 03:12:59;;;;;;;17.85;10.55;;;6.90;99.90;;;;;;7587097;19;20538;-77
2023/05/03 03:15:38;;;;;;;16.05;10.63;;;6.90;99.90;;;;;;7598882;19;20655;-76
2023/05/03 03:18:10;;;;;;;18.10;12.20;;;6.90;99.90;;;;;;7600725;19;20015;-78
2023/05/03 03:20:42;;;;;;;21.65;12.30;;;6.80;99.90;;;;;;7591807;19;20018;-76
2023/05/03 03:23:15;;;;;;;19.23;11.32;;;6.80;99.90;;;;;;7598970;19;20022;-78
2023/05/03 03:25:47;;;;;;;19.20;10.68;;;6.80;99.90;;;;;;7596805;19;20039;-77
2023/05/03 03:28:20;;;;;;;15.30;9.50;;;6.90;99.90;;;;;;7596410;19;20022;-76
2023/05/03 03:30:52;;;;;;;22.40;13.38;;;6.90;99.90;;;;;;7588867;19;20019;-76
2023/05/03 03:33:28;;;;;;;18.58;12.07;;;6.80;99.90;;;;;;7582571;19;20018;-75
2023/05/03 03:36:09;;;;;;;17.92;11.32;;;6.80;99.90;;;;;;7574497;19;20018;-76
2023/05/03 03:38:44;;;;;;;21.90;12.52;;;7.00;99.90;;;;;;7599980;19;20037;-78
2023/05/03 03:41:18;;;;;;;19.23;12.68;;;7.00;99.90;;;;;;7592942;19;20074;-77
2023/05/03 03:43:51;;;;;;;15.15;10.90;;;7.00;99.90;;;;;;7596547;19;20073;-77
2023/05/03 03:46:24;;;;;;;17.63;11.48;;;7.00;99.90;;;;;;7586831;19;20066;-78
2023/05/03 03:48:59;;;;;;;16.55;11.43;;;7.10;99.90;;;;;;7563153;19;20022;-77
2023/05/03 03:51:34;;;;;;;22.98;11.25;;;7.20;99.90;;;;;;7599465;19;20071;-79
2023/05/03 03:54:06;;;;;;;18.57;11.43;;;7.10;99.90;;;;;;7570929;19;20023;-75
2023/05/03 03:56:42;;;;;;;17.13;11.52;;;7.10;99.90;;;;;;7597645;19;20451;-79
2023/05/03 03:59:14;;;;;;;20.17;12.25;;;7.10;99.90;;;;;;7596779;19;20452;-77
2023/05/03 04:01:47;;;;;;;;;;;7.20;99.90;;;;;;7578352;19;20019;-75
2023/05/03 04:04:20;;;;;;;19.08;11.88;;;7.30;99.90;;;;;;7585443;19;20383;-78
2023/05/03 04:06:53;;;;;;;17.85;12.38;;;7.30;99.90;;;;;;7579357;19;20013;-76
2023/05/03 04:09:28;;;;;;;17.08;11.10;;;7.30;99.90;;;;;;7564309;19;20018;-77
2023/05/03 04:12:02;;;;;;;18.25;11.02;;;7.40;99.90;;;;;;7589000;19;20022;-75
2023/05/03 04:14:35;;;;;;;16.42;11.63;;;7.40;99.90;;;;;;7584090;19;20045;-75
2023/05/03 04:17:07;;;;;;;14.17;10.87;;;7.40;99.90;;;;;;7572244;19;20011;-75
2023/05/03 04:19:40;;;;;;;17.23;12.40;;;7.40;99.90;;;;;;7583052;19;20014;-75
2023/05/03 04:22:13;;;;;;;17.88;12.60;;;7.50;99.90;;;;;;7585736;19;20380;-77
2023/05/03 04:24:45;;;;;;;20.23;13.20;;;7.50;99.90;;;;;;7597069;19;20019;-76
2023/05/03 04:27:17;;;;;;;18.25;13.15;;;7.50;99.90;;;;;;7592398;19;20028;-76
2023/05/03 04:29:49;;;;;;;17.10;12.32;;;7.50;99.90;;;;;;7590584;19;20102;-77
2023/05/03 04:32:23;;;;;;;21.27;13.75;;;7.60;99.90;;;;;;7592367;19;20019;-76
2023/05/03 04:34:59;;;;;;;16.15;11.57;;;7.60;99.90;;;;;;7576543;19;20017;-77
2023/05/03 04:37:31;;;;;;;27.42;11.65;;;7.50;99.90;;;;;;7589677;19;20014;-77
2023/05/03 04:40:08;;;;;;;26.08;15.93;;;7.60;99.90;;;;;;7575947;19;20022;-77
2023/05/03 04:42:43;;;;;;;20.15;13.07;;;7.60;99.90;;;;;;7565914;19;20023;-75
2023/05/03 04:45:17;;;;;;;20.55;13.93;;;7.60;99.90;;;;;;7567261;19;20434;-75
2023/05/03 04:47:50;;;;;;;21.45;12.75;;;7.60;99.90;;;;;;7552377;19;20112;-76
2023/05/03 04:50:22;;;;;;;17.73;12.32;;;7.70;99.90;;;;;;7571993;19;20010;-75
2023/05/03 04:52:55;;;;;;;16.75;12.50;;;7.80;99.90;;;;;;7568291;19;20018;-76
2023/05/03 04:55:29;;;;;;;16.05;11.43;;;7.90;99.90;;;;;;7580630;19;20145;-75
2023/05/03 04:58:03;;;;;;;22.55;12.70;;;7.90;99.90;;;;;;7562871;19;20014;-75
2023/05/03 05:00:35;;;;;;;19.80;14.43;;;8.00;99.90;;;;;;7542722;19;20040;-75
2023/05/03 05:03:13;;;;;;;20.90;13.75;;;8.10;99.90;;;;;;7532513;19;20013;-76
2023/05/03 05:05:45;;;;;;;17.88;12.30;;;8.00;99.90;;;;;;7563010;19;20634;-76
2023/05/03 05:08:19;;;;;;;27.60;17.50;;;8.10;99.90;;;;;;7542930;19;20014;-76
2023/05/03 05:10:57;;;;;;;21.80;14.43;;;8.10;99.90;;;;;;7556561;19;21527;-75
2023/05/03 05:13:38;;;;;;;19.65;13.98;;;8.20;99.90;;;;;;7555224;19;20056;-75
2023/05/03 05:16:10;;;;;;;19.73;14.70;;;8.20;99.90;;;;;;7577425;19;20014;-76
2023/05/03 05:18:46;;;;;;;20.50;12.93;;;8.30;99.90;;;;;;7531875;19;20112;-78
2023/05/03 05:21:30;;;;;;;22.52;14.65;;;8.40;99.90;;;;;;7565913;19;20039;-75
2023/05/03 05:24:05;;;;;;;24.40;16.00;;;8.60;99.90;;;;;;7541174;19;20017;-78
2023/05/03 05:26:45;;;;;;;22.92;12.85;;;8.60;99.90;;;;;;7580715;19;20063;-77
2023/05/03 05:29:19;;;;;;;20.10;13.80;;;8.70;99.90;;;;;;7519670;19;20401;-77
2023/05/03 05:31:51;;;;;;;19.83;13.10;;;8.70;99.90;;;;;;7541918;19;20050;-77
2023/05/03 05:34:25;;;;;;;20.75;14.60;;;8.70;99.90;;;;;;7539248;19;20427;-77
2023/05/03 05:36:59;;;;;;;21.10;14.50;;;8.80;99.90;;;;;;7535076;19;20014;-76
2023/05/03 05:39:31;;;;;;;20.48;14.07;;;8.60;99.90;;;;;;7568025;19;20085;-77
2023/05/03 05:42:03;;;;;;;23.88;13.95;;;8.60;99.90;;;;;;7549276;19;20086;-77
2023/05/03 05:44:36;;;;;;;18.15;12.70;;;8.60;99.90;;;;;;7559603;19;20025;-77
2023/05/03 05:47:09;;;;;;;25.97;14.20;;;8.70;99.90;;;;;;7563116;19;20018;-76
2023/05/03 05:49:43;;;;;;;;;;;8.70;99.90;;;;;;7569218;19;20015;-73
2023/05/03 05:52:16;;;;;;;23.92;16.20;;;8.80;99.90;;;;;;7564989;19;20935;-76
2023/05/03 05:54:48;;;;;;;25.10;16.23;;;8.90;99.90;;;;;;7559895;19;20010;-77
2023/05/03 05:57:21;;;;;;;29.37;18.33;;;9.00;99.90;;;;;;7564653;19;20269;-76
2023/05/03 05:59:53;;;;;;;35.95;20.67;;;9.20;99.90;;;;;;7571269;19;20290;-77
2023/05/03 06:02:26;;;;;;;34.90;19.75;;;9.20;99.90;;;;;;7576356;19;20022;-76
2023/05/03 06:05:00;;;;;;;35.65;20.77;;;9.30;99.90;;;;;;7549845;19;20465;-75
2023/05/03 06:07:33;;;;;;;36.78;21.00;;;9.40;99.90;;;;;;7549654;19;20397;-75
2023/05/03 06:10:06;;;;;;;54.07;25.23;;;9.40;99.90;;;;;;7545599;19;20007;-76
2023/05/03 06:12:40;;;;;;;47.88;24.88;;;9.40;99.90;;;;;;7579584;19;20010;-76
2023/05/03 06:15:18;;;;;;;46.83;26.73;;;9.40;99.90;;;;;;7561080;19;20018;-73
2023/05/03 06:17:51;;;;;;;50.07;26.30;;;9.40;99.90;;;;;;7556120;19;20575;-75
2023/05/03 06:20:23;;;;;;;48.58;25.58;;;9.40;99.90;;;;;;7528432;19;20368;-77
2023/05/03 06:22:56;;;;;;;42.72;25.17;;;9.50;99.90;;;;;;7551967;19;20019;-76
2023/05/03 06:25:28;;;;;;;44.83;23.92;;;9.50;99.90;;;;;;7538969;19;20024;-75
2023/05/03 06:28:01;;;;;;;43.67;25.25;;;9.50;99.90;;;;;;7541705;19;20070;-76
2023/05/03 06:30:36;;;;;;;58.63;29.58;;;9.50;99.90;;;;;;7561420;19;21438;-74
2023/05/03 06:33:13;;;;;;;47.13;26.63;;;9.60;99.90;;;;;;7548654;19;20070;-75
2023/05/03 06:35:47;;;;;;;51.47;27.50;;;9.50;99.90;;;;;;7574070;19;20040;-75
2023/05/03 06:38:22;;;;;;;60.00;29.08;;;9.50;99.90;;;;;;7553767;19;20080;-75
2023/05/03 06:40:54;;;;;;;48.90;27.50;;;9.40;99.90;;;;;;7552823;19;20692;-75
2023/05/03 06:43:26;;;;;;;67.32;29.98;;;9.50;99.90;;;;;;7565999;19;20402;-76
2023/05/03 06:46:06;;;;;;;88.50;29.90;;;9.50;99.90;;;;;;7589068;19;20057;-75
2023/05/03 06:48:38;;;;;;;91.53;29.42;;;9.50;99.90;;;;;;7588446;19;20461;-75
2023/05/03 06:51:11;;;;;;;97.07;30.10;;;9.50;99.90;;;;;;7573732;19;21163;-75
2023/05/03 06:53:45;;;;;;;76.38;28.50;;;9.50;99.90;;;;;;7573920;19;20018;-75
2023/05/03 06:56:17;;;;;;;70.57;25.75;;;9.50;99.90;;;;;;7575606;19;20026;-74
2023/05/03 06:58:49;;;;;;;58.22;26.85;;;9.50;99.90;;;;;;7553504;19;20504;-74
2023/05/03 07:01:22;;;;;;;74.72;29.67;;;9.60;99.90;;;;;;7558462;19;21040;-76
2023/05/03 07:03:54;;;;;;;57.40;27.38;;;9.70;99.90;;;;;;7563855;19;20014;-76
2023/05/03 07:06:26;;;;;;;60.83;28.92;;;9.50;99.90;;;;;;7563154;19;20021;-76
2023/05/03 07:08:59;;;;;;;88.13;25.27;;;9.50;99.90;;;;;;7589684;19;20074;-74
2023/05/03 07:11:33;;;;;;;56.38;25.48;;;9.60;99.90;;;;;;7584654;19;20130;-75
2023/05/03 07:14:06;;;;;;;52.22;24.95;;;9.70;99.90;;;;;;7588004;19;20370;-77
2023/05/03 07:16:38;;;;;;;47.42;24.90;;;9.70;99.90;;;;;;7598234;19;20756;-75
2023/05/03 07:19:10;;;;;;;55.95;26.27;;;9.70;99.90;;;;;;7572299;19;20106;-78
2023/05/03 07:21:42;;;;;;;51.70;23.80;;;9.70;99.90;;;;;;7599592;19;20365;-78
2023/05/03 07:24:15;;;;;;;89.57;29.70;;;9.70;99.90;;;;;;7593174;19;20015;-77
2023/05/03 07:26:47;;;;;;;46.25;22.38;;;9.60;99.90;;;;;;7590206;19;21179;-77
2023/05/03 07:29:20;;;;;;;62.55;24.15;;;9.50;99.90;;;;;;7583180;19;20014;-76
2023/05/03 07:31:52;;;;;;;75.90;27.40;;;9.50;99.90;;;;;;7592816;19;20019;-75
2023/05/03 07:34:25;;;;;;;55.53;23.60;;;9.60;99.90;;;;;;7579087;19;20023;-76
2023/05/03 07:36:57;;;;;;;66.23;22.33;;;9.60;99.90;;;;;;7591498;19;20015;-76
2023/05/03 07:39:29;;;;;;;51.03;23.42;;;9.70;99.90;;;;;;7590951;19;20017;-76
2023/05/03 07:42:02;;;;;;;51.90;25.52;;;9.80;99.90;;;;;;7594004;19;20018;-76
2023/05/03 07:44:34;;;;;;;46.28;22.05;;;9.80;99.90;;;;;;7599614;19;20017;-75
2023/05/03 07:47:06;;;;;;;38.00;19.92;;;9.90;99.90;;;;;;7604656;19;20056;-76
2023/05/03 07:49:39;;;;;;;42.17;21.38;;;10.00;99.90;;;;;;7579307;19;20434;-75
2023/05/03 07:52:11;;;;;;;31.98;18.40;;;10.00;99.90;;;;;;7601163;19;20019;-76
2023/05/03 07:54:44;;;;;;;33.13;17.38;;;10.00;99.90;;;;;;7595111;19;20071;-75
2023/05/03 07:57:17;;;;;;;32.72;18.15;;;10.00;99.90;;;;;;7577500;19;20078;-76
2023/05/03 07:59:49;;;;;;;33.95;17.55;;;10.10;99.90;;;;;;7602164;19;20038;-76
2023/05/03 08:02:21;;;;;;;31.85;17.40;;;10.20;99.90;;;;;;7592232;19;20018;-77
2023/05/03 08:04:53;;;;;;;32.78;18.23;;;10.40;99.90;;;;;;7601354;19;20027;-75
2023/05/03 08:07:27;;;;;;;35.38;18.23;;;10.60;99.90;;;;;;7586547;19;20270;-75
2023/05/03 08:10:01;;;;;;;34.22;18.85;;;10.70;99.90;;;;;;7586757;19;20999;-75
2023/05/03 08:12:35;;;;;;;31.42;17.50;;;10.70;99.90;;;;;;7597316;19;20009;-77
2023/05/03 08:15:07;;;;;;;32.45;18.30;;;10.90;99.90;;;;;;7612029;19;20014;-75
2023/05/03 08:17:43;;;;;;;31.25;18.42;;;10.90;99.90;;;;;;7595787;19;20042;-78
2023/05/03 08:20:15;;;;;;;29.70;17.75;;;10.70;99.90;;;;;;7592779;19;20060;-76
2023/05/03 08:22:48;;;;;;;32.28;19.23;;;10.80;99.90;;;;;;7595347;19;20413;-76
2023/05/03 08:25:21;;;;;;;29.73;17.63;;;10.90;99.90;;;;;;7590548;19;20014;-76
2023/05/03 08:27:54;;;;;;;30.55;18.85;;;11.00;99.90;;;;;;7598329;19;20014;-77
2023/05/03 08:30:26;;;;;;;32.58;19.23;;;11.00;99.90;;;;;;7586743;19;20334;-77
2023/05/03 08:32:58;;;;;;;32.65;19.30;;;11.10;99.90;;;;;;7604284;19;20041;-77
2023/05/03 08:35:30;;;;;;;31.17;19.45;;;11.10;99.90;;;;;;7595406;19;20010;-76
2023/05/03 08:38:04;;;;;;;32.75;19.23;;;11.20;99.90;;;;;;7592447;19;20485;-76
2023/05/03 08:40:38;;;;;;;37.38;21.55;;;11.30;99.90;;;;;;7598645;19;20085;-77
2023/05/03 08:43:13;;;;;;;36.75;21.55;;;11.20;99.90;;;;;;7594706;19;20022;-76
2023/05/03 08:45:46;;;;;;;31.75;18.80;;;11.30;99.90;;;;;;7597690;19;20037;-77
2023/05/03 08:48:18;;;;;;;31.70;19.83;;;11.50;99.90;;;;;;7601785;19;20023;-77
2023/05/03 08:50:52;;;;;;;30.35;19.35;;;11.60;99.90;;;;;;7599785;19;20025;-75
2023/05/03 08:53:25;;;;;;;33.85;20.45;;;11.70;99.90;;;;;;7593521;19;20029;-76
2023/05/03 08:55:57;;;;;;;29.52;19.13;;;11.90;99.90;;;;;;7592626;19;20343;-74
2023/05/03 08:58:34;;;;;;;30.98;19.27;;;12.00;99.90;;;;;;7597806;19;20858;-77
2023/05/03 09:01:07;;;;;;;30.88;19.98;;;12.10;99.90;;;;;;7594316;19;21325;-76
2023/05/03 09:03:48;;;;;;;29.80;19.23;;;12.10;99.90;;;;;;7603403;19;20512;-74
2023/05/03 09:06:26;;;;;;;29.02;19.42;;;12.20;99.90;;;;;;7587812;19;20018;-77
2023/05/03 09:08:58;;;;;;;29.15;18.73;;;12.20;99.90;;;;;;7596509;19;20142;-77
2023/05/03 09:11:32;;;;;;;28.07;18.63;;;12.20;99.90;;;;;;7581617;19;20518;-78
2023/05/03 09:14:20;;;;;;;29.27;18.75;;;12.30;99.90;;;;;;7567180;19;20022;-75
2023/05/03 09:16:52;;;;;;;24.80;17.23;;;12.30;99.90;;;;;;7576600;19;20733;-77
2023/05/03 09:19:25;;;;;;;26.90;18.20;;;12.50;99.90;;;;;;7589795;19;20326;-75
2023/05/03 09:22:06;;;;;;;27.08;18.27;;;12.60;99.90;;;;;;7590324;19;20018;-75
2023/05/03 09:24:38;;;;;;;28.63;17.33;;;12.70;99.90;;;;;;7590757;19;20018;-77
2023/05/03 09:27:20;;;;;;;29.75;18.25;;;12.80;99.90;;;;;;7597433;19;20018;-78
2023/05/03 09:29:53;;;;;;;29.13;19.10;;;12.80;99.90;;;;;;7602318;19;20687;-75
2023/05/03 09:32:27;;;;;;;26.92;18.15;;;12.90;99.90;;;;;;7592140;19;20033;-77
2023/05/03 09:35:09;;;;;;;26.80;18.60;;;13.00;99.90;;;;;;7584113;19;20056;-75
2023/05/03 09:37:41;;;;;;;23.35;16.95;;;12.90;99.90;;;;;;7584279;19;20098;-74
2023/05/03 09:40:17;;;;;;;25.77;18.13;;;12.90;99.90;;;;;;7595391;19;20011;-75
2023/05/03 09:43:10;;;;;;;25.55;16.75;;;13.10;99.90;;;;;;7585870;19;20022;-75
2023/05/03 09:45:42;;;;;;;25.25;17.60;;;13.20;99.90;;;;;;7590171;19;20511;-75
2023/05/03 09:48:15;;;;;;;22.55;15.52;;;13.40;99.90;;;;;;7599613;19;20048;-74
2023/05/03 09:50:48;;;;;;;21.80;16.02;;;13.50;99.90;;;;;;7586777;19;20007;-75
2023/05/03 09:53:21;;;;;;;23.55;14.68;;;13.60;99.90;;;;;;7581939;19;20115;-75
2023/05/03 09:55:54;;;;;;;21.85;14.70;;;13.80;99.90;;;;;;7590175;19;20010;-75
2023/05/03 09:58:29;;;;;;;17.10;13.05;;;13.90;99.90;;;;;;7583671;19;20018;-75
2023/05/03 10:01:02;;;;;;;17.17;13.48;;;14.10;99.90;;;;;;7597802;19;20050;-75
2023/05/03 10:03:47;;;;;;;19.63;14.70;;;14.20;99.90;;;;;;7595278;19;20022;-76
2023/05/03 10:06:47;;;;;;;18.38;14.18;;;14.30;99.90;;;;;;7578884;19;20049;-75
2023/05/03 10:09:41;;;;;;;18.67;13.88;;;14.30;99.90;;;;;;7564676;19;20015;-74
2023/05/03 10:12:16;;;;;;;;;;;14.40;99.90;;;;;;7588208;19;20097;-76
2023/05/03 10:14:52;;;;;;;21.58;15.02;;;14.20;99.90;;;;;;7591188;19;19918;-75
2023/05/03 10:17:30;;;;;;;18.63;13.48;;;14.30;99.90;;;;;;7590315;19;20543;-75
2023/05/03 10:20:32;;;;;;;19.63;12.57;;;14.60;99.90;;;;;;7581259;19;20657;-75
2023/05/03 10:23:04;;;;;;;20.95;13.38;;;14.70;99.90;;;;;;7585486;19;20070;-78
2023/05/03 10:25:39;;;;;;;17.40;14.57;;;14.60;99.90;;;;;;7606689;19;20022;-74
2023/05/03 10:28:13;;;;;;;17.75;13.70;;;14.30;99.90;;;;;;7596778;19;20010;-75
2023/05/03 10:30:46;;;;;;;20.10;13.60;;;14.10;99.90;;;;;;7576641;19;20090;-75
2023/05/03 10:33:18;;;;;;;21.88;14.32;;;14.00;99.90;;;;;;7571029;19;20021;-75
2023/05/03 10:35:52;;;;;;;20.15;15.40;;;14.10;99.90;;;;;;7562809;19;20014;-76
2023/05/03 10:38:26;;;;;;;17.45;13.85;;;14.30;99.90;;;;;;7580769;19;20018;-76
2023/05/03 10:41:00;;;;;;;20.83;14.48;;;14.50;99.90;;;;;;7591838;19;20484;-75
2023/05/03 10:43:32;;;;;;;19.25;14.10;;;14.40;99.90;;;;;;7603525;19;20026;-75
2023/05/03 10:46:07;;;;;;;22.42;16.23;;;14.30;99.90;;;;;;7589905;19;20014;-75
2023/05/03 10:48:41;;;;;;;27.70;16.92;;;14.20;99.90;;;;;;7581719;19;20554;-75
2023/05/03 10:51:31;;;;;;;22.40;16.23;;;14.10;99.90;;;;;;7589911;19;20013;-74
2023/05/03 10:54:04;;;;;;;24.33;16.63;;;14.00;99.90;;;;;;7579461;19;20007;-74
2023/05/03 10:56:53;;;;;;;26.77;19.70;;;14.00;99.90;;;;;;7588429;19;20819;-76
2023/05/03 10:59:46;;;;;;;32.30;21.13;;;14.00;99.90;;;;;;7603793;19;20015;-76
2023/05/03 11:02:26;;;;;;;33.85;21.27;;;14.10;99.90;;;;;;7593444;19;20768;-76
2023/05/03 11:05:03;;;;;;;31.90;21.60;;;14.40;99.90;;;;;;7594270;19;20074;-76
2023/05/03 11:07:36;;;;;;;30.17;20.27;;;15.20;99.90;;;;;;7594251;19;20664;-74
2023/05/03 11:10:18;;;;;;;28.27;19.15;;;15.80;99.90;;;;;;7594938;19;20428;-74
2023/05/03 11:12:51;;;;;;;27.98;18.85;;;16.40;99.90;;;;;;7587339;19;20579;-74
2023/05/03 11:15:23;;;;;;;28.27;19.13;;;16.90;99.90;;;;;;7593032;19;22018;-75
2023/05/03 11:17:56;;;;;;;27.75;19.73;;;17.00;98.90;;;;;;7584486;19;20091;-75
2023/05/03 11:20:28;;;;;;;27.75;18.02;;;17.30;96.50;;;;;;7588617;19;20376;-76
2023/05/03 11:23:01;;;;;;;27.23;19.37;;;17.40;94.10;;;;;;7576505;19;20022;-75
2023/05/03 11:25:34;;;;;;;26.90;18.07;;;17.70;94.80;;;;;;7604135;19;20827;-76
2023/05/03 11:28:06;;;;;;;27.63;18.83;;;18.00;95.40;;;;;;7613302;19;20662;-76
2023/05/03 11:30:38;;;;;;;26.17;17.38;;;18.30;92.20;;;;;;7597440;19;20022;-75
2023/05/03 11:33:10;;;;;;;23.65;17.83;;;18.50;91.00;;;;;;7594003;19;20634;-75
2023/05/03 11:35:43;;;;;;;28.30;21.20;;;18.60;90.50;;;;;;7597642;19;20601;-75
2023/05/03 11:38:15;;;;;;;27.02;18.83;;;18.70;90.30;;;;;;7605083;19;20014;-75
2023/05/03 11:40:47;;;;;;;23.33;16.55;;;18.70;88.70;;;;;;7597112;19;20018;-75
2023/05/03 11:43:19;;;;;;;25.48;18.38;;;18.80;90.00;;;;;;7608525;19;20022;-76
2023/05/03 11:45:55;;;;;;;21.90;15.98;;;18.90;87.20;;;;;;7571643;19;20484;-74
2023/05/03 11:48:31;;;;;;;20.70;15.15;;;19.20;85.60;;;;;;7579241;19;20023;-74
2023/05/03 11:51:09;;;;;;;18.10;14.20;;;19.50;82.90;;;;;;7601728;19;20098;-74
2023/05/03 11:53:42;;;;;;;21.48;16.25;;;19.70;80.00;;;;;;7603853;19;20022;-74
2023/05/03 11:56:17;;;;;;;20.52;15.45;;;19.40;79.00;;;;;;7602022;19;20018;-75
2023/05/03 11:58:56;;;;;;;17.48;13.40;;;19.50;81.90;;;;;;7600935;19;20019;-75
2023/05/03 12:01:29;;;;;;;18.92;13.15;;;20.00;82.20;;;;;;7578687;19;20036;-75
2023/05/03 12:04:03;;;;;;;17.08;13.00;;;20.20;76.00;;;;;;7596514;19;20022;-75
2023/05/03 12:06:36;;;;;;;19.25;12.93;;;19.90;73.50;;;;;;7596935;19;20018;-76
2023/05/03 12:09:13;;;;;;;16.83;13.10;;;20.00;74.90;;;;;;7585905;19;20014;-74
2023/05/03 12:11:48;;;;;;;19.45;14.43;;;20.10;71.90;;;;;;7585950;19;20037;-75
2023/05/03 12:14:23;;;;;;;18.83;13.13;;;20.00;71.40;;;;;;7600456;19;20630;-75
2023/05/03 12:16:57;;;;;;;18.27;14.18;;;20.10;73.00;;;;;;7592809;19;20627;-76
2023/05/03 12:19:31;;;;;;;15.32;12.52;;;20.30;72.10;;;;;;7601689;19;20010;-75
2023/05/03 12:22:18;;;;;;;20.98;14.38;;;20.40;73.50;;;;;;7602464;19;20029;-75
2023/05/03 12:24:56;;;;;;;20.33;15.73;;;20.20;73.30;;;;;;7600671;19;20041;-76
2023/05/03 12:27:30;;;;;;;25.08;16.75;;;20.30;75.60;;;;;;7586544;19;20460;-74
2023/05/03 12:30:04;;;;;;;21.70;15.18;;;20.60;73.50;;;;;;7600434;19;20029;-73
2023/05/03 12:32:41;;;;;;;18.85;14.20;;;19.80;71.60;;;;;;7601086;19;20039;-75
2023/05/03 12:35:17;;;;;;;14.07;10.98;;;19.40;73.60;;;;;;7580186;19;20014;-75
2023/05/03 12:37:50;;;;;;;11.65;9.15;;;19.30;70.80;;;;;;7599118;19;20022;-77
2023/05/03 12:40:27;;;;;;;16.77;9.65;;;19.70;69.50;;;;;;7603368;19;20256;-75
2023/05/03 12:43:06;;;;;;;15.77;12.10;;;20.00;69.50;;;;;;7608203;19;20014;-74
2023/05/03 12:45:38;;;;;;;15.83;12.67;;;20.10;69.40;;;;;;7607112;19;20015;-75
2023/05/03 12:48:12;;;;;;;;;;;20.30;70.80;;;;;;7586125;19;20018;-74
2023/05/03 12:50:44;;;;;;;20.75;15.23;;;20.80;70.60;;;;;;7571140;19;20253;-76
2023/05/03 12:53:17;;;;;;;19.70;14.00;;;20.90;69.70;;;;;;7581667;19;21360;-77
2023/05/03 12:55:50;;;;;;;17.00;13.57;;;20.00;68.60;;;;;;7567492;19;20278;-77
2023/05/03 12:58:23;;;;;;;19.65;12.02;;;19.50;70.60;;;;;;7570909;19;20024;-75
2023/05/03 13:01:16;;;;;;;13.30;10.88;;;19.50;70.80;;;;;;7574459;19;20049;-74
2023/05/03 13:04:10;;;;;;;14.23;11.45;;;19.80;68.50;;;;;;7566829;19;20585;-74
2023/05/03 13:06:45;;;;;;;14.45;11.43;;;20.50;68.40;;;;;;7581748;19;20463;-75
2023/05/03 13:09:19;;;;;;;16.70;12.50;;;20.30;70.10;;;;;;7575518;19;20104;-75
2023/05/03 13:12:01;;;;;;;14.48;12.13;;;20.20;67.60;;;;;;7581850;19;20019;-74
2023/05/03 13:14:33;;;;;;;15.05;10.98;;;19.60;69.60;;;;;;7561223;19;20449;-77